Time;durP1;ratioP1;P1;durP2;ratioP2;P2;SDS_P1;SDS_P2;PMS_P1;PMS_P2;Temp;Humidity;BMP_temperature;BMP_pressure;BME280_temperature;BME280_humidity;BME280_pressure;Samples;Min_cycle;Max_cycle;Signal;HPM_P1;HPM_P2
2023/03/29 02:02:52;;;;;;;9.67;9.07;;;6.90;99.90;;;;;;4945297;23;20276;-76
2023/03/29 02:05:21;;;;;;;8.47;7.87;;;6.90;99.90;;;;;;4936410;29;20232;-76
2023/03/29 02:07:50;;;;;;;9.07;8.47;;;6.90;99.90;;;;;;4937328;29;20709;-76
2023/03/29 02:10:18;;;;;;;9.73;8.93;;;7.00;99.90;;;;;;4936343;29;20209;-76
2023/03/29 02:12:45;;;;;;;9.20;8.50;;;6.90;99.90;;;;;;4922552;29;20262;-76
2023/03/29 02:15:14;;;;;;;8.47;7.83;;;6.90;99.90;;;;;;4922849;29;20202;-75
2023/03/29 02:17:43;;;;;;;9.00;8.30;;;7.00;99.90;;;;;;4931602;29;20233;-76
2023/03/29 02:20:17;;;;;;;8.73;8.13;;;6.90;99.90;;;;;;4925984;29;20681;-76
2023/03/29 02:22:54;;;;;;;8.80;8.10;;;7.00;99.90;;;;;;4923284;29;20732;-76
2023/03/29 02:25:23;;;;;;;8.70;8.00;;;7.00;99.90;;;;;;4933289;29;20698;-76
2023/03/29 02:27:51;;;;;;;9.43;8.73;;;7.00;99.90;;;;;;4933616;29;20201;-76
2023/03/29 02:30:19;;;;;;;8.93;8.13;;;7.00;99.90;;;;;;4922194;29;20274;-76
2023/03/29 02:32:52;;;;;;;7.87;7.33;;;7.00;99.90;;;;;;4930066;29;20312;-76
2023/03/29 02:35:27;;;;;;;8.27;7.67;;;7.00;99.90;;;;;;4931398;29;20620;-76
2023/03/29 02:37:58;;;;;;;8.07;7.47;;;7.00;99.90;;;;;;4924069;29;20312;-76
2023/03/29 02:40:26;;;;;;;8.17;7.57;;;7.10;99.90;;;;;;4922166;29;20210;-76
2023/03/29 02:42:55;;;;;;;8.07;7.47;;;7.10;99.90;;;;;;4925222;29;20200;-77
2023/03/29 02:45:23;;;;;;;7.33;6.83;;;7.10;99.90;;;;;;4932146;29;20281;-76
2023/03/29 02:47:54;;;;;;;7.63;7.13;;;7.20;99.90;;;;;;4926437;29;20227;-76
2023/03/29 02:50:27;;;;;;;7.50;6.90;;;7.20;99.90;;;;;;4929768;29;20267;-76
2023/03/29 02:52:58;;;;;;;7.80;7.20;;;7.20;99.90;;;;;;4930619;29;20234;-77
2023/03/29 02:55:30;;;;;;;7.17;6.67;;;7.30;99.90;;;;;;4899072;29;20211;-79
2023/03/29 02:57:57;;;;;;;7.30;6.70;;;7.30;99.90;;;;;;4907282;29;20226;-77
2023/03/29 03:00:24;;;;;;;7.70;7.20;;;7.30;99.90;;;;;;4909954;29;20262;-79
2023/03/29 03:02:51;;;;;;;7.30;6.80;;;7.40;99.90;;;;;;4905078;29;20305;-79
2023/03/29 03:05:18;;;;;;;7.03;6.53;;;7.40;99.90;;;;;;4910168;29;20287;-80
2023/03/29 03:07:46;;;;;;;6.67;6.27;;;7.40;99.90;;;;;;4909945;29;20694;-79
2023/03/29 03:10:14;;;;;;;6.50;6.10;;;7.50;99.90;;;;;;4903157;29;20224;-79
2023/03/29 03:12:41;;;;;;;6.00;5.50;;;7.50;99.90;;;;;;4910756;29;20230;-79
2023/03/29 03:15:09;;;;;;;7.47;7.07;;;7.50;99.90;;;;;;4908611;29;20196;-79
2023/03/29 03:17:39;;;;;;;6.30;5.90;;;7.50;99.90;;;;;;4907114;29;20242;-80
2023/03/29 03:20:11;;;;;;;7.33;6.93;;;7.60;99.90;;;;;;4918563;29;20205;-79
2023/03/29 03:22:40;;;;;;;7.90;7.40;;;7.60;99.90;;;;;;4916840;29;20232;-79
2023/03/29 03:25:10;;;;;;;7.33;6.93;;;7.60;99.90;;;;;;4916152;29;20611;-79
2023/03/29 03:27:38;;;;;;;7.50;7.10;;;7.60;99.90;;;;;;4914473;29;20592;-79
2023/03/29 03:30:07;;;;;;;6.93;6.53;;;7.60;99.90;;;;;;4927550;29;20289;-79
2023/03/29 03:32:53;;;;;;;8.57;7.90;;;7.60;99.90;;;;;;4928916;29;20231;-78
2023/03/29 03:36:01;;;;;;;7.83;7.23;;;7.60;99.90;;;;;;4933975;29;20209;-79
2023/03/29 03:38:28;;;;;;;7.53;7.03;;;7.60;99.90;;;;;;4921031;29;20234;-77
2023/03/29 03:41:00;;;;;;;7.20;6.70;;;7.70;99.90;;;;;;4923934;29;20266;-78
2023/03/29 03:43:28;;;;;;;7.30;6.70;;;7.60;99.90;;;;;;4909929;29;20212;-78
2023/03/29 03:45:56;;;;;;;8.10;7.50;;;7.60;99.90;;;;;;4917949;29;20594;-78
2023/03/29 03:48:25;;;;;;;8.37;7.77;;;7.60;99.90;;;;;;4929722;29;20206;-78
2023/03/29 03:51:10;;;;;;;9.73;9.03;;;7.60;99.90;;;;;;4927698;29;20226;-76
2023/03/29 03:53:37;;;;;;;7.90;7.20;;;7.60;99.90;;;;;;4919965;29;20676;-76
2023/03/29 03:56:15;;;;;;;8.00;7.30;;;7.60;99.90;;;;;;4920754;29;20313;-76
2023/03/29 03:59:02;;;;;;;8.77;8.10;;;7.60;99.90;;;;;;4923229;29;20231;-77
2023/03/29 04:01:34;;;;;;;7.57;7.07;;;7.60;99.90;;;;;;4924753;29;20276;-76
2023/03/29 04:04:12;;;;;;;7.17;6.60;;;7.60;99.90;;;;;;4929443;29;20199;-76
2023/03/29 04:06:42;;;;;;;7.90;7.40;;;7.60;99.90;;;;;;4924963;29;20210;-76
2023/03/29 04:09:28;;;;;;;7.73;7.13;;;7.60;99.90;;;;;;4926148;29;20696;-76
2023/03/29 04:12:11;;;;;;;6.80;6.40;;;7.60;99.90;;;;;;4931288;29;20330;-78
2023/03/29 04:14:40;;;;;;;7.60;7.10;;;7.70;99.90;;;;;;4931416;29;20192;-76
2023/03/29 04:17:11;;;;;;;7.80;7.30;;;7.60;99.90;;;;;;4935392;29;20310;-76
2023/03/29 04:20:10;;;;;;;7.03;6.63;;;7.70;99.90;;;;;;4901041;29;20219;-76
2023/03/29 04:22:40;;;;;;;8.03;7.43;;;7.70;99.90;;;;;;4925899;29;20219;-76
2023/03/29 04:25:09;;;;;;;7.70;7.10;;;7.70;99.90;;;;;;4931293;29;20218;-77
2023/03/29 04:28:00;;;;;;;7.23;6.80;;;7.70;99.90;;;;;;4915073;29;20801;-76
2023/03/29 04:30:40;;;;;;;7.80;7.30;;;7.70;99.90;;;;;;4928016;29;20731;-76
2023/03/29 04:33:13;;;;;;;8.03;7.43;;;7.70;99.90;;;;;;4930403;29;20206;-76
2023/03/29 04:35:43;;;;;;;7.50;7.00;;;7.70;99.90;;;;;;4931330;29;20749;-77
2023/03/29 04:38:15;;;;;;;6.87;6.47;;;7.70;99.90;;;;;;4933018;29;20290;-76
2023/03/29 04:40:43;;;;;;;6.70;6.23;;;7.60;99.90;;;;;;4927642;29;20223;-76
2023/03/29 04:43:33;;;;;;;7.77;7.07;;;7.60;99.90;;;;;;4916747;29;20203;-77
2023/03/29 04:46:09;;;;;;;8.13;7.63;;;7.60;99.90;;;;;;4923526;29;20211;-78
2023/03/29 04:49:01;;;;;;;8.10;7.60;;;7.50;99.90;;;;;;4937233;29;20203;-76
2023/03/29 04:51:38;;;;;;;8.53;7.93;;;7.50;99.90;;;;;;4933724;29;20258;-76
2023/03/29 04:54:06;;;;;;;8.30;7.70;;;7.50;99.90;;;;;;4925301;29;20311;-76
2023/03/29 04:56:47;;;;;;;8.43;7.87;;;7.50;99.90;;;;;;4927634;29;20199;-76
2023/03/29 04:59:34;;;;;;;8.80;8.10;;;7.50;99.90;;;;;;4918910;29;20596;-76
2023/03/29 05:02:04;;;;;;;9.57;8.87;;;7.50;99.90;;;;;;4932682;29;20294;-76
2023/03/29 05:04:31;;;;;;;8.90;8.30;;;7.50;99.90;;;;;;4925907;29;20215;-76
2023/03/29 05:07:16;;;;;;;8.10;7.60;;;7.50;99.90;;;;;;4922513;29;20576;-77
2023/03/29 05:09:43;;;;;;;8.23;7.63;;;7.50;99.90;;;;;;4930953;29;20286;-77
2023/03/29 05:12:11;;;;;;;8.13;7.60;;;7.50;99.90;;;;;;4932463;29;20228;-78
2023/03/29 05:14:51;;;;;;;10.03;9.27;;;7.60;99.90;;;;;;4926684;29;20228;-76
2023/03/29 05:17:20;;;;;;;8.97;8.37;;;7.60;99.90;;;;;;4931356;29;20199;-76
2023/03/29 05:19:47;;;;;;;8.40;7.80;;;7.60;99.90;;;;;;4922923;29;20228;-76
2023/03/29 05:22:15;;;;;;;8.77;8.10;;;7.60;99.90;;;;;;4917441;29;20225;-76
2023/03/29 05:24:42;;;;;;;8.60;7.90;;;7.60;99.90;;;;;;4923487;29;20227;-77
2023/03/29 05:27:17;;;;;;;8.43;7.93;;;7.60;99.90;;;;;;4925057;29;20206;-77
2023/03/29 05:29:54;;;;;;;8.83;8.13;;;7.70;99.90;;;;;;4925800;29;20221;-77
2023/03/29 05:32:27;;;;;;;8.80;8.30;;;7.70;99.90;;;;;;4918292;29;20700;-77
2023/03/29 05:34:54;;;;;;;8.47;7.97;;;7.80;99.90;;;;;;4925498;29;20203;-76
2023/03/29 05:37:21;;;;;;;8.53;8.00;;;7.80;99.90;;;;;;4926804;29;20240;-77
2023/03/29 05:39:55;;;;;;;8.20;7.70;;;7.90;99.90;;;;;;4927269;29;20201;-76
2023/03/29 05:42:27;;;;;;;8.10;7.60;;;8.00;99.90;;;;;;4931374;29;20243;-77
2023/03/29 05:45:09;;;;;;;8.83;8.13;;;8.00;99.90;;;;;;4931242;29;20255;-76
2023/03/29 05:47:36;;;;;;;7.70;7.20;;;8.00;99.90;;;;;;4923773;29;20709;-77
2023/03/29 05:50:03;;;;;;;8.27;7.67;;;8.10;99.90;;;;;;4923440;29;20252;-76
2023/03/29 05:52:31;;;;;;;8.80;8.10;;;8.20;99.90;;;;;;4926548;29;20239;-77
2023/03/29 05:54:57;;;;;;;9.13;8.43;;;8.20;99.90;;;;;;4911664;29;20670;-76
2023/03/29 05:57:26;;;;;;;8.90;8.30;;;8.30;99.90;;;;;;4925637;29;20250;-77
2023/03/29 05:59:53;;;;;;;8.03;7.43;;;8.30;99.90;;;;;;4917424;29;20201;-76
2023/03/29 06:02:21;;;;;;;8.10;7.50;;;8.40;99.90;;;;;;4919817;29;20231;-76
2023/03/29 06:04:52;;;;;;;7.80;7.30;;;8.50;99.90;;;;;;4921967;29;20207;-77
2023/03/29 06:07:23;;;;;;;7.70;7.20;;;8.50;99.90;;;;;;4907928;29;20203;-77
2023/03/29 06:10:28;;;;;;;8.53;8.00;;;8.60;99.90;;;;;;4915780;29;20211;-77
2023/03/29 06:13:08;;;;;;;8.43;7.93;;;8.70;99.90;;;;;;4918123;29;20266;-77
2023/03/29 06:15:35;;;;;;;8.30;7.70;;;8.80;99.90;;;;;;4926970;29;20210;-76
2023/03/29 06:18:08;;;;;;;8.43;7.60;;;8.90;99.90;;;;;;4915534;29;20241;-76
2023/03/29 06:20:36;;;;;;;7.67;7.17;;;8.90;99.90;;;;;;4923521;29;20195;-76
2023/03/29 06:23:09;;;;;;;8.00;7.40;;;9.10;99.90;;;;;;4924733;29;20197;-76
2023/03/29 06:25:35;;;;;;;9.40;8.70;;;9.20;99.90;;;;;;4920184;29;20737;-77
2023/03/29 06:28:02;;;;;;;8.60;8.00;;;9.40;99.90;;;;;;4928360;29;20195;-77
2023/03/29 06:30:30;;;;;;;7.93;7.30;;;9.50;99.90;;;;;;4919820;29;20202;-77
2023/03/29 06:32:59;;;;;;;8.13;7.60;;;9.70;99.90;;;;;;4919748;29;20642;-77
2023/03/29 06:35:47;;;;;;;7.97;7.40;;;10.00;99.90;;;;;;4919448;29;20210;-77
2023/03/29 06:38:19;;;;;;;7.77;7.27;;;10.10;99.90;;;;;;4932959;29;20216;-77
2023/03/29 06:41:01;;;;;;;7.40;6.90;;;10.30;99.90;;;;;;4923169;29;20305;-77
2023/03/29 06:43:35;;;;;;;7.30;6.80;;;10.40;99.90;;;;;;4925887;29;20197;-77
2023/03/29 06:46:10;;;;;;;7.50;7.00;;;10.40;99.90;;;;;;4932822;29;20215;-77
2023/03/29 06:48:50;;;;;;;7.50;7.00;;;10.40;99.90;;;;;;4924791;29;20661;-77
2023/03/29 06:51:18;;;;;;;7.10;6.60;;;10.30;99.90;;;;;;4922847;29;20280;-78
2023/03/29 06:53:45;;;;;;;7.40;6.87;;;10.30;99.90;;;;;;4926644;29;20203;-78
2023/03/29 06:56:13;;;;;;;7.17;6.67;;;10.20;99.90;;;;;;4923229;29;20628;-78
2023/03/29 06:58:43;;;;;;;6.80;6.40;;;10.20;99.90;;;;;;4917390;29;20236;-78
2023/03/29 07:01:33;;;;;;;7.03;6.53;;;10.20;99.90;;;;;;4922472;29;20825;-77
2023/03/29 07:04:10;;;;;;;6.90;6.43;;;10.20;99.90;;;;;;4924153;29;20206;-77
2023/03/29 07:07:02;;;;;;;7.23;6.73;;;10.20;99.90;;;;;;4923420;29;20230;-77
2023/03/29 07:09:34;;;;;;;6.97;6.50;;;10.30;99.90;;;;;;4921334;29;20353;-77
2023/03/29 07:12:30;;;;;;;7.20;6.70;;;10.30;99.90;;;;;;4915752;29;20339;-78
2023/03/29 07:15:00;;;;;;;7.10;6.60;;;10.40;99.90;;;;;;4923274;29;20235;-77
2023/03/29 07:17:47;;;;;;;6.80;6.40;;;10.50;99.90;;;;;;4913681;29;20209;-78
2023/03/29 07:20:15;;;;;;;6.80;6.40;;;10.70;99.90;;;;;;4924487;29;20268;-77
2023/03/29 07:22:49;;;;;;;7.30;6.80;;;10.80;99.90;;;;;;4921481;29;20220;-78
2023/03/29 07:25:17;;;;;;;7.27;6.77;;;11.00;99.90;;;;;;4921895;29;20204;-77
2023/03/29 07:27:45;;;;;;;7.30;6.80;;;11.10;99.90;;;;;;4917713;29;20205;-77
2023/03/29 07:30:15;;;;;;;7.80;7.03;;;11.20;99.90;;;;;;4921359;29;20199;-77
2023/03/29 07:32:44;;;;;;;7.20;6.70;;;11.20;99.90;;;;;;4926398;29;20245;-78
2023/03/29 07:35:37;;;;;;;4.67;4.27;;;11.40;99.90;;;;;;4918016;29;20268;-78
2023/03/29 07:38:07;;;;;;;4.50;4.20;;;11.60;99.90;;;;;;4922956;29;20270;-77
2023/03/29 07:40:34;;;;;;;4.03;3.70;;;11.70;99.90;;;;;;4914304;29;20211;-78
2023/03/29 07:43:34;;;;;;;7.50;7.00;;;11.80;99.90;;;;;;4923313;29;20210;-78
2023/03/29 07:46:02;;;;;;;2.57;2.37;;;11.90;99.90;;;;;;4928893;29;20209;-78
2023/03/29 07:48:30;;;;;;;2.70;2.33;;;11.90;99.90;;;;;;4926924;29;20197;-77
2023/03/29 07:51:02;;;;;;;2.60;2.40;;;11.90;99.90;;;;;;4924424;29;20226;-76
2023/03/29 07:53:35;;;;;;;2.83;2.50;;;11.70;99.90;;;;;;4929612;29;20199;-78
2023/03/29 07:56:06;;;;;;;2.87;2.57;;;11.70;99.90;;;;;;4919602;29;20223;-78
2023/03/29 07:59:02;;;;;;;2.63;2.30;;;11.60;99.90;;;;;;4923244;29;20707;-78
2023/03/29 08:01:29;;;;;;;4.30;4.00;;;11.60;99.90;;;;;;4915495;29;20265;-78
2023/03/29 08:04:12;;;;;;;4.70;4.40;;;11.60;99.90;;;;;;4922646;29;20289;-77
2023/03/29 08:06:58;;;;;;;4.87;4.57;;;11.70;99.90;;;;;;4933560;29;20218;-78
2023/03/29 08:09:37;;;;;;;5.93;5.53;;;11.70;99.90;;;;;;4917064;29;20624;-78
2023/03/29 08:12:04;;;;;;;7.47;6.97;;;11.70;99.90;;;;;;4922548;29;20586;-78
2023/03/29 08:14:35;;;;;;;7.33;6.70;;;11.60;99.90;;;;;;4929141;29;20206;-78
2023/03/29 08:17:10;;;;;;;7.50;7.00;;;11.60;99.90;;;;;;4917245;29;20695;-78
2023/03/29 08:19:43;;;;;;;7.57;7.07;;;11.60;99.90;;;;;;4925602;29;20245;-77
2023/03/29 08:22:10;;;;;;;7.70;7.20;;;11.50;99.90;;;;;;4909830;29;20272;-78
2023/03/29 08:25:08;;;;;;;8.20;7.60;;;11.50;99.90;;;;;;4929820;29;20195;-79
2023/03/29 08:27:41;;;;;;;8.10;7.50;;;11.50;99.90;;;;;;4925518;29;20608;-78
2023/03/29 08:30:11;;;;;;;8.10;7.50;;;11.50;99.90;;;;;;4931925;29;20200;-78
2023/03/29 08:32:40;;;;;;;8.03;7.47;;;11.50;99.90;;;;;;4926382;29;20622;-78
2023/03/29 08:35:09;;;;;;;8.00;7.40;;;11.50;99.90;;;;;;4914663;29;20212;-77
2023/03/29 08:37:56;;;;;;;8.13;7.53;;;11.50;99.90;;;;;;4912557;29;20238;-78
2023/03/29 08:40:28;;;;;;;8.30;7.70;;;11.50;99.90;;;;;;4929299;29;20227;-78
2023/03/29 08:43:42;;;;;;;8.53;7.90;;;11.60;99.90;;;;;;4928660;29;20221;-77
2023/03/29 08:46:28;;;;;;;8.40;7.90;;;11.70;99.90;;;;;;4925329;29;20310;-78
2023/03/29 08:49:01;;;;;;;8.53;8.03;;;11.80;99.90;;;;;;4925660;29;20210;-78
2023/03/29 08:51:32;;;;;;;8.10;7.60;;;11.80;99.90;;;;;;4922674;29;20866;-78
2023/03/29 08:54:05;;;;;;;4.93;4.53;;;11.80;99.90;;;;;;4923094;29;20624;-78
2023/03/29 08:57:07;;;;;;;4.73;4.43;;;11.80;99.90;;;;;;4914519;29;20207;-78
2023/03/29 08:59:39;;;;;;;5.30;4.90;;;11.80;99.90;;;;;;4909966;29;20249;-77
2023/03/29 09:02:15;;;;;;;4.67;4.27;;;11.80;99.90;;;;;;4921324;29;20243;-77
2023/03/29 09:04:43;;;;;;;6.70;6.10;;;11.80;99.90;;;;;;4928960;29;20239;-78
2023/03/29 09:07:22;;;;;;;6.70;6.10;;;11.80;99.90;;;;;;4930153;29;20581;-78
2023/03/29 09:09:49;;;;;;;6.97;6.43;;;12.00;99.90;;;;;;4923317;29;20198;-78
2023/03/29 09:12:43;;;;;;;7.57;7.07;;;12.10;99.90;;;;;;4920823;29;20225;-81
2023/03/29 09:15:15;;;;;;;6.83;6.23;;;12.20;99.90;;;;;;4911432;29;20202;-81
2023/03/29 09:17:58;;;;;;;7.37;6.67;;;12.20;99.90;;;;;;4926729;29;20293;-82
2023/03/29 09:20:32;;;;;;;7.83;7.33;;;12.30;99.90;;;;;;4913577;29;20730;-81
2023/03/29 09:23:12;;;;;;;7.70;7.20;;;12.30;99.90;;;;;;4902071;29;20218;-80
2023/03/29 09:26:04;;;;;;;7.97;7.40;;;12.40;99.90;;;;;;4915306;29;20294;-79
2023/03/29 09:29:01;;;;;;;8.50;7.80;;;12.40;99.90;;;;;;4921773;29;20195;-79
2023/03/29 09:31:32;;;;;;;8.57;8.00;;;12.60;99.90;;;;;;4926116;29;20656;-79
2023/03/29 09:34:04;;;;;;;8.67;8.07;;;12.90;99.90;;;;;;4917430;29;20197;-80
2023/03/29 09:36:51;;;;;;;8.20;7.60;;;13.10;99.90;;;;;;4920859;29;20203;-80
2023/03/29 09:39:19;;;;;;;3.50;2.80;;;13.40;99.90;;;;;;4927433;29;20224;-80
2023/03/29 09:41:54;;;;;;;4.97;2.70;;;13.60;99.90;;;;;;4926032;29;20228;-80
2023/03/29 09:44:26;;;;;;;4.93;2.67;;;13.70;99.90;;;;;;4928533;29;20208;-79
2023/03/29 09:46:55;;;;;;;2.90;2.60;;;13.70;99.90;;;;;;4926087;29;20200;-78
2023/03/29 09:49:30;;;;;;;5.57;5.07;;;13.80;99.90;;;;;;4925418;29;20229;-77
2023/03/29 09:52:02;;;;;;;4.50;4.20;;;13.80;99.90;;;;;;4929021;29;20619;-81
2023/03/29 09:54:29;;;;;;;4.57;4.20;;;14.00;99.90;;;;;;4929690;29;20225;-80
2023/03/29 09:57:18;;;;;;;4.47;4.07;;;14.10;99.90;;;;;;4910939;29;20240;-77
2023/03/29 09:59:49;;;;;;;6.03;5.53;;;14.30;99.90;;;;;;4920096;29;20226;-78
2023/03/29 10:02:20;;;;;;;5.50;4.80;;;14.50;99.90;;;;;;4929957;29;20249;-77
2023/03/29 10:04:54;;;;;;;3.13;2.80;;;14.60;99.90;;;;;;4924955;29;20653;-77
2023/03/29 10:07:21;;;;;;;5.03;4.53;;;14.70;99.90;;;;;;4922230;29;20299;-77
2023/03/29 10:09:55;;;;;;;5.13;4.73;;;14.90;99.90;;;;;;4925925;29;20199;-78
2023/03/29 10:12:23;;;;;;;4.60;4.30;;;15.10;99.90;;;;;;4918303;29;20790;-78
2023/03/29 10:14:54;;;;;;;6.73;6.23;;;15.40;99.90;;;;;;4931986;29;20285;-77
2023/03/29 10:17:22;;;;;;;7.27;6.60;;;15.60;99.90;;;;;;4921717;29;20201;-77
2023/03/29 10:19:50;;;;;;;7.07;6.50;;;15.80;99.90;;;;;;4921851;29;20664;-77
2023/03/29 10:22:20;;;;;;;6.90;6.30;;;16.10;99.90;;;;;;4923975;29;20312;-76
2023/03/29 10:24:50;;;;;;;7.13;6.63;;;16.50;99.90;;;;;;4923177;29;20658;-78
2023/03/29 10:27:20;;;;;;;4.47;4.07;;;16.80;99.90;;;;;;4926566;29;20626;-77
2023/03/29 10:29:47;;;;;;;4.80;4.50;;;17.00;99.90;;;;;;4922696;29;20199;-78
2023/03/29 10:32:17;;;;;;;5.20;4.80;;;17.10;99.90;;;;;;4927522;29;20240;-78
2023/03/29 10:34:46;;;;;;;5.60;5.00;;;17.40;99.90;;;;;;4925130;29;20230;-78
2023/03/29 10:37:15;;;;;;;5.33;4.97;;;17.60;99.90;;;;;;4916322;29;20302;-77
2023/03/29 10:39:42;;;;;;;3.57;3.27;;;17.60;99.90;;;;;;4925066;29;20253;-77
2023/03/29 10:42:13;;;;;;;5.67;5.27;;;17.90;99.90;;;;;;4922258;29;20254;-79
2023/03/29 10:44:40;;;;;;;6.80;6.30;;;18.10;99.90;;;;;;4913941;29;20208;-79
2023/03/29 10:47:14;;;;;;;5.53;5.23;;;18.10;99.90;;;;;;4923941;29;20204;-79
2023/03/29 10:49:45;;;;;;;5.60;5.20;;;18.20;99.90;;;;;;4917798;29;20278;-79
2023/03/29 10:52:15;;;;;;;6.30;5.80;;;18.10;99.90;;;;;;4916898;29;20278;-79
2023/03/29 10:54:42;;;;;;;5.47;5.07;;;18.10;99.90;;;;;;4916131;29;20203;-78
2023/03/29 10:57:14;;;;;;;6.13;5.67;;;18.20;99.90;;;;;;4925579;29;20298;-78
2023/03/29 10:59:49;;;;;;;5.70;5.30;;;18.40;99.90;;;;;;4920477;29;20573;-79
2023/03/29 11:02:50;;;;;;;5.70;4.20;;;18.60;99.90;;;;;;4927261;29;20627;-78
2023/03/29 11:05:29;;;;;;;7.03;6.57;;;18.70;99.90;;;;;;4921836;29;20202;-77
2023/03/29 11:08:19;;;;;;;6.90;6.40;;;18.60;99.90;;;;;;4927592;29;20603;-78
2023/03/29 11:10:53;;;;;;;6.77;6.27;;;18.40;99.90;;;;;;4908236;29;20214;-78
2023/03/29 11:13:27;;;;;;;6.40;6.00;;;18.40;99.90;;;;;;4922027;29;20211;-77
2023/03/29 11:16:07;;;;;;;6.73;6.20;;;18.40;99.90;;;;;;4920848;29;20293;-77
2023/03/29 11:18:55;;;;;;;6.40;5.90;;;18.50;99.90;;;;;;4926985;29;20274;-78
2023/03/29 11:21:32;;;;;;;6.33;5.83;;;18.50;99.90;;;;;;4922523;29;20281;-78
2023/03/29 11:24:27;;;;;;;6.47;5.80;;;18.50;99.90;;;;;;4929382;29;20576;-79
2023/03/29 11:27:10;;;;;;;6.90;6.40;;;18.50;99.90;;;;;;4917307;29;20209;-78
2023/03/29 11:29:48;;;;;;;7.10;6.70;;;18.40;99.90;;;;;;4930359;29;20206;-78
2023/03/29 11:32:20;;;;;;;7.03;6.63;;;18.30;99.90;;;;;;4917031;29;20665;-77
2023/03/29 11:35:00;;;;;;;8.07;7.47;;;18.10;99.90;;;;;;4933206;29;20269;-77
2023/03/29 11:37:36;;;;;;;7.73;7.23;;;18.10;99.90;;;;;;4924330;29;20633;-79
2023/03/29 11:40:20;;;;;;;3.07;2.87;;;18.00;99.90;;;;;;4930429;29;20723;-78
2023/03/29 11:42:50;;;;;;;6.87;6.47;;;17.80;99.90;;;;;;4918942;29;20198;-78
2023/03/29 11:45:27;;;;;;;5.90;5.40;;;17.70;99.90;;;;;;4929888;29;20209;-77
2023/03/29 11:47:56;;;;;;;3.93;3.63;;;17.80;99.90;;;;;;4917346;29;20735;-78
2023/03/29 11:50:26;;;;;;;3.83;3.57;;;17.80;99.90;;;;;;4925881;29;20203;-78
2023/03/29 11:52:58;;;;;;;3.40;3.20;;;17.70;99.90;;;;;;4930375;29;20202;-78
2023/03/29 11:55:27;;;;;;;3.90;3.60;;;17.60;99.90;;;;;;4929227;29;20209;-78
2023/03/29 11:57:58;;;;;;;5.33;3.60;;;17.50;99.90;;;;;;4919941;29;20205;-78
2023/03/29 12:00:29;;;;;;;4.00;3.70;;;17.40;99.90;;;;;;4919844;29;20314;-78
2023/03/29 12:03:01;;;;;;;3.53;3.23;;;17.40;99.90;;;;;;4918913;29;20311;-78
2023/03/29 12:05:32;;;;;;;3.63;3.40;;;17.60;99.90;;;;;;4927267;29;20210;-78
2023/03/29 12:08:05;;;;;;;3.70;3.50;;;17.60;99.90;;;;;;4929028;29;20205;-78
2023/03/29 12:10:37;;;;;;;3.77;3.47;;;17.70;99.90;;;;;;4909942;29;20206;-77
2023/03/29 12:13:10;;;;;;;3.40;3.13;;;17.70;99.90;;;;;;4913567;29;20686;-78
2023/03/29 12:15:43;;;;;;;3.90;3.50;;;17.70;99.90;;;;;;4913876;29;20227;-78
2023/03/29 12:18:18;;;;;;;3.83;3.53;;;17.60;99.90;;;;;;4915899;29;20748;-78
2023/03/29 12:20:48;;;;;;;4.27;3.87;;;17.60;99.90;;;;;;4915059;29;20705;-78
2023/03/29 12:23:17;;;;;;;3.70;3.40;;;17.50;99.90;;;;;;4926208;29;20209;-78
2023/03/29 12:25:52;;;;;;;3.60;3.30;;;17.40;99.90;;;;;;4911340;29;20665;-79
2023/03/29 12:28:32;;;;;;;4.17;3.77;;;17.30;99.90;;;;;;4918368;29;20603;-77
2023/03/29 12:31:09;;;;;;;3.90;3.20;;;17.30;99.90;;;;;;4921834;29;20216;-78
2023/03/29 12:34:06;;;;;;;3.20;2.90;;;17.20;99.90;;;;;;4933186;29;20202;-79
2023/03/29 12:37:13;;;;;;;3.13;2.90;;;17.10;99.90;;;;;;4894790;29;20212;-78
2023/03/29 12:39:48;;;;;;;4.00;3.70;;;17.20;99.90;;;;;;4924269;29;20232;-77
2023/03/29 12:42:33;;;;;;;5.90;5.30;;;17.20;99.90;;;;;;4925551;29;20235;-78
2023/03/29 12:45:33;;;;;;;8.70;8.20;;;17.30;99.90;;;;;;4908329;29;20253;-78
2023/03/29 12:48:00;;;;;;;4.20;3.90;;;17.30;99.90;;;;;;4930937;29;20594;-77
2023/03/29 12:50:32;;;;;;;8.27;7.77;;;17.30;99.90;;;;;;4931595;29;20668;-78
2023/03/29 12:53:05;;;;;;;7.67;7.17;;;17.20;99.90;;;;;;4925440;29;20196;-78
2023/03/29 12:55:48;;;;;;;7.60;7.10;;;17.20;99.90;;;;;;4936529;29;20201;-78
2023/03/29 12:58:49;;;;;;;7.23;6.83;;;17.30;99.90;;;;;;4917256;29;20204;-77
2023/03/29 13:01:26;;;;;;;8.20;7.70;;;17.60;99.90;;;;;;4890576;29;20304;-78
2023/03/29 13:03:57;;;;;;;4.90;3.60;;;18.00;99.90;;;;;;4923083;29;20616;-79
2023/03/29 13:06:31;;;;;;;3.10;2.90;;;18.30;99.90;;;;;;4929309;29;20627;-82
2023/03/29 13:09:00;;;;;;;3.63;3.03;;;18.60;99.90;;;;;;4926944;29;20688;-77
2023/03/29 13:11:33;;;;;;;2.90;2.70;;;18.80;99.90;;;;;;4915099;29;20275;-77
2023/03/29 13:14:03;;;;;;;2.43;2.07;;;18.80;99.90;;;;;;4932603;29;20197;-77
2023/03/29 13:16:33;;;;;;;2.20;2.00;;;18.70;99.90;;;;;;4923182;29;20209;-77
2023/03/29 13:19:15;;;;;;;2.13;1.93;;;18.50;99.90;;;;;;4933795;29;20203;-77
2023/03/29 13:21:54;;;;;;;2.57;1.90;;;18.30;99.90;;;;;;4926902;29;20277;-77
2023/03/29 13:24:38;;;;;;;5.20;4.80;;;18.10;99.90;;;;;;4931316;29;20269;-84
2023/03/29 13:27:14;;;;;;;3.30;3.00;;;18.00;99.90;;;;;;4921652;29;20216;-76
2023/03/29 13:29:57;;;;;;;2.37;2.17;;;17.90;99.90;;;;;;4937398;29;20786;-78
2023/03/29 13:32:39;;;;;;;6.40;6.00;;;17.70;99.90;;;;;;4929491;29;20663;-77
2023/03/29 13:35:17;;;;;;;6.83;6.53;;;17.40;99.90;;;;;;4926637;29;20204;-78
2023/03/29 13:37:55;;;;;;;7.73;7.23;;;17.10;99.90;;;;;;4921826;29;20631;-82
2023/03/29 13:40:41;;;;;;;8.17;7.67;;;16.90;99.90;;;;;;4913688;29;20224;-77
2023/03/29 13:43:19;;;;;;;8.10;7.60;;;16.60;99.90;;;;;;4929390;29;20205;-77
2023/03/29 13:46:03;;;;;;;7.70;7.20;;;16.40;99.90;;;;;;4917849;29;20255;-78
2023/03/29 13:48:32;;;;;;;8.00;7.50;;;16.40;99.90;;;;;;4913065;29;20241;-79
2023/03/29 13:51:02;;;;;;;8.40;7.90;;;16.30;99.90;;;;;;4913504;29;20216;-78
2023/03/29 13:53:34;;;;;;;4.60;4.30;;;16.30;99.90;;;;;;4917006;29;20279;-78
2023/03/29 13:56:01;;;;;;;4.73;4.43;;;16.20;99.90;;;;;;4913283;29;20204;-80
2023/03/29 13:58:38;;;;;;;6.40;6.00;;;16.20;99.90;;;;;;4906210;29;20231;-77
2023/03/29 14:01:11;;;;;;;4.67;4.03;;;16.30;99.90;;;;;;4920602;29;20232;-77
2023/03/29 14:03:43;;;;;;;8.07;7.20;;;16.30;99.90;;;;;;4932858;29;20272;-77
2023/03/29 14:06:14;;;;;;;5.10;4.70;;;16.20;99.90;;;;;;4923978;29;20200;-77
2023/03/29 14:08:42;;;;;;;9.20;8.50;;;16.10;99.90;;;;;;4935790;29;20270;-77
2023/03/29 14:11:21;;;;;;;7.40;6.90;;;16.20;99.90;;;;;;4926262;29;20299;-77
2023/03/29 14:13:52;;;;;;;7.60;7.10;;;16.20;99.90;;;;;;4921352;29;20207;-77
2023/03/29 14:16:21;;;;;;;7.10;6.70;;;16.20;99.90;;;;;;4926023;29;20208;-77
2023/03/29 14:18:50;;;;;;;7.93;7.33;;;16.20;99.90;;;;;;4922913;29;20211;-78
2023/03/29 14:21:18;;;;;;;7.40;7.00;;;16.10;99.90;;;;;;4930129;29;20247;-78
2023/03/29 14:23:47;;;;;;;4.00;3.63;;;16.20;99.90;;;;;;4923583;29;20207;-79
2023/03/29 14:26:17;;;;;;;5.77;5.17;;;16.40;99.90;;;;;;4934951;29;20211;-79
2023/03/29 14:28:45;;;;;;;7.37;6.87;;;16.40;99.90;;;;;;4924157;29;20216;-78
2023/03/29 14:31:19;;;;;;;3.50;3.20;;;16.50;99.90;;;;;;4927280;29;20216;-78
2023/03/29 14:33:51;;;;;;;7.67;7.17;;;16.50;99.90;;;;;;4927398;29;20275;-78
2023/03/29 14:36:17;;;;;;;6.83;6.33;;;16.40;99.90;;;;;;4922225;29;20212;-78
2023/03/29 14:38:49;;;;;;;7.40;6.90;;;16.50;99.90;;;;;;4928703;29;20260;-77
2023/03/29 14:41:16;;;;;;;7.63;7.03;;;16.50;99.90;;;;;;4927738;29;20220;-78
2023/03/29 14:43:43;;;;;;;8.33;7.73;;;16.60;99.90;;;;;;4935071;29;20201;-77
2023/03/29 14:46:12;;;;;;;7.53;7.03;;;16.70;99.90;;;;;;4928345;29;20227;-77
2023/03/29 14:48:41;;;;;;;7.00;6.50;;;16.80;99.90;;;;;;4918648;29;20263;-79
2023/03/29 14:51:09;;;;;;;7.27;6.67;;;16.90;99.90;;;;;;4928411;29;20266;-79
2023/03/29 14:53:37;;;;;;;4.00;3.70;;;16.90;99.90;;;;;;4922974;29;20223;-77
2023/03/29 14:56:05;;;;;;;7.33;6.83;;;16.90;99.90;;;;;;4919511;29;20247;-77
2023/03/29 14:58:35;;;;;;;4.13;3.83;;;17.00;99.90;;;;;;4914553;29;20643;-77
2023/03/29 15:01:05;;;;;;;3.50;3.20;;;17.00;99.90;;;;;;4921882;29;20327;-77
2023/03/29 15:03:43;;;;;;;3.33;3.13;;;17.10;99.90;;;;;;4924882;29;20213;-77
2023/03/29 15:06:13;;;;;;;6.80;6.37;;;17.20;99.90;;;;;;4930318;29;20200;-77
2023/03/29 15:08:42;;;;;;;3.30;3.00;;;17.10;99.90;;;;;;4911446;29;20214;-79
2023/03/29 15:11:15;;;;;;;3.97;3.70;;;17.10;99.90;;;;;;4929646;29;20227;-79
2023/03/29 15:13:43;;;;;;;3.20;3.00;;;17.10;99.90;;;;;;4921054;29;20213;-77
2023/03/29 15:16:14;;;;;;;3.30;3.00;;;17.10;99.90;;;;;;4933182;29;20242;-77
2023/03/29 15:18:45;;;;;;;7.50;7.00;;;17.20;99.90;;;;;;4920720;29;20218;-77
2023/03/29 15:21:15;;;;;;;7.20;6.70;;;17.20;99.90;;;;;;4918717;29;20263;-77
2023/03/29 15:23:47;;;;;;;7.67;6.97;;;17.20;99.90;;;;;;4924088;29;20203;-77
2023/03/29 15:26:20;;;;;;;6.97;6.40;;;17.30;99.90;;;;;;4921134;29;20212;-78
2023/03/29 15:28:48;;;;;;;8.20;7.60;;;17.30;99.90;;;;;;4912808;29;20199;-77